createdAt,value
2023-02-16T00:00:27.649Z,21.10
2023-02-16T00:02:54.817Z,21.10
2023-02-16T00:05:27.159Z,21.20
2023-02-16T00:07:54.970Z,21.77
2023-02-16T00:10:22.497Z,20.33
2023-02-16T00:13:08.303Z,21.60
2023-02-16T00:15:35.159Z,21.63
2023-02-16T00:18:04.484Z,21.17
2023-02-16T00:20:31.651Z,22.77
2023-02-16T00:22:58.540Z,21.30
2023-02-16T00:25:25.185Z,21.87
2023-02-16T00:27:52.141Z,20.80
2023-02-16T00:30:22.528Z,21.73
2023-02-16T00:32:50.911Z,23.87
2023-02-16T00:35:19.076Z,22.83
2023-02-16T00:37:49.357Z,22.53
2023-02-16T00:40:17.443Z,21.57
2023-02-16T00:42:46.692Z,19.93
2023-02-16T00:45:20.875Z,21.50
2023-02-16T00:47:50.097Z,22.47
2023-02-16T00:50:18.788Z,21.87
2023-02-16T00:52:47.340Z,20.80
2023-02-16T00:55:35.293Z,21.33
2023-02-16T00:58:26.244Z,21.23
2023-02-16T01:00:55.585Z,22.00
2023-02-16T01:03:28.277Z,20.23
2023-02-16T01:06:14.460Z,20.27
2023-02-16T01:09:00.563Z,20.20
2023-02-16T01:11:27.836Z,18.80
2023-02-16T01:13:55.416Z,19.40
2023-02-16T01:16:36.927Z,22.13
2023-02-16T01:19:04.749Z,21.90
2023-02-16T01:21:31.518Z,22.87
2023-02-16T01:24:01.465Z,18.90
2023-02-16T01:26:29.076Z,18.83
2023-02-16T01:28:55.711Z,19.80
2023-02-16T01:31:22.532Z,22.07
2023-02-16T01:33:50.624Z,21.60
2023-02-16T01:36:31.792Z,22.63
2023-02-16T01:38:59.010Z,22.43
2023-02-16T01:41:44.617Z,22.97
2023-02-16T01:44:20.791Z,22.13
2023-02-16T01:47:19.102Z,23.63
2023-02-16T01:49:45.796Z,20.50
2023-02-16T01:52:21.264Z,21.80
2023-02-16T01:54:59.617Z,21.70
2023-02-16T01:57:44.759Z,24.37
2023-02-16T02:00:17.705Z,22.33
2023-02-16T02:02:52.509Z,22.70
2023-02-16T02:05:36.219Z,20.87
2023-02-16T02:08:11.010Z,21.50
2023-02-16T02:11:09.838Z,22.13
2023-02-16T02:13:54.641Z,23.90
2023-02-16T02:16:25.195Z,23.20
2023-02-16T02:18:52.293Z,22.00
2023-02-16T02:21:53.764Z,25.33
2023-02-16T02:24:45.226Z,23.10
2023-02-16T02:27:24.689Z,24.40
2023-02-16T02:30:01.441Z,23.30
2023-02-16T02:32:51.283Z,24.80
2023-02-16T02:35:51.200Z,23.00
2023-02-16T02:38:34.449Z,23.50
2023-02-16T02:41:10.921Z,23.00
2023-02-16T02:43:50.551Z,20.70
2023-02-16T02:46:36.319Z,21.07
2023-02-16T02:49:04.100Z,23.07
2023-02-16T02:51:31.075Z,21.83
2023-02-16T02:54:33.474Z,23.00
2023-02-16T02:57:49.881Z,23.10
2023-02-16T03:00:43.726Z,24.10
2023-02-16T03:03:31.943Z,25.33
2023-02-16T03:06:07.132Z,23.70
2023-02-16T03:08:37.017Z,22.60
2023-02-16T03:11:34.373Z,23.93
2023-02-16T03:14:08.959Z,21.87
2023-02-16T03:16:44.348Z,24.37
2023-02-16T03:19:32.378Z,24.20
2023-02-16T03:22:19.435Z,22.50
2023-02-16T03:25:04.856Z,22.13
2023-02-16T03:27:54.465Z,25.47
2023-02-16T03:30:24.105Z,23.73
2023-02-16T03:32:51.448Z,24.23
2023-02-16T03:35:18.288Z,23.57
2023-02-16T03:37:46.227Z,23.87
2023-02-16T03:40:28.416Z,24.13
2023-02-16T03:43:05.887Z,24.03
2023-02-16T03:45:35.752Z,24.70
2023-02-16T03:48:03.629Z,25.87
2023-02-16T03:50:30.797Z,26.70
2023-02-16T03:53:06.572Z,25.20
2023-02-16T03:55:41.744Z,24.73
2023-02-16T03:58:10.718Z,27.17
2023-02-16T04:00:38.144Z,24.50
2023-02-16T04:03:05.911Z,27.77
2023-02-16T04:05:33.236Z,28.07
2023-02-16T04:08:00.004Z,26.33
2023-02-16T04:10:27.053Z,25.80
2023-02-16T04:12:54.045Z,28.80
2023-02-16T04:15:24.686Z,26.27
2023-02-16T04:17:51.555Z,25.93
2023-02-16T04:20:20.899Z,27.23
2023-02-16T04:22:48.128Z,26.53
2023-02-16T04:25:15.459Z,26.87
2023-02-16T04:27:43.257Z,27.03
2023-02-16T04:30:16.826Z,25.90
2023-02-16T04:32:43.822Z,27.00
2023-02-16T04:35:10.664Z,25.20
2023-02-16T04:37:37.741Z,27.70
2023-02-16T04:40:05.647Z,26.13
2023-02-16T04:42:32.759Z,26.17
2023-02-16T04:44:59.626Z,25.90
2023-02-16T04:47:26.623Z,26.43
2023-02-16T04:49:53.627Z,26.47
2023-02-16T04:52:20.535Z,26.33
2023-02-16T04:54:47.444Z,28.13
2023-02-16T04:57:14.455Z,25.80
2023-02-16T04:59:41.140Z,26.43
2023-02-16T05:02:08.226Z,29.37
2023-02-16T05:04:34.959Z,28.37
2023-02-16T05:07:01.634Z,29.40
2023-02-16T05:09:28.397Z,26.40
2023-02-16T05:12:13.886Z,27.87
2023-02-16T05:14:44.936Z,28.13
2023-02-16T05:17:16.998Z,26.57
2023-02-16T05:19:46.441Z,26.83
2023-02-16T05:22:14.168Z,27.60
2023-02-16T05:24:41.765Z,28.77
2023-02-16T05:27:11.577Z,28.77
2023-02-16T05:29:38.314Z,29.23
2023-02-16T05:32:05.193Z,28.80
2023-02-16T05:34:32.236Z,29.37
2023-02-16T05:36:59.108Z,26.67
2023-02-16T05:39:26.544Z,28.93
2023-02-16T05:41:53.228Z,27.20
2023-02-16T05:44:19.924Z,28.67
2023-02-16T05:46:46.628Z,27.70
2023-02-16T05:49:15.450Z,27.10
2023-02-16T05:51:42.493Z,26.50
2023-02-16T05:54:10.701Z,26.17
2023-02-16T05:56:37.560Z,28.40
2023-02-16T05:59:04.281Z,26.70
2023-02-16T06:01:30.951Z,28.07
2023-02-16T06:03:57.658Z,27.17
2023-02-16T06:06:24.408Z,25.73
2023-02-16T06:08:51.159Z,27.40
2023-02-16T06:11:35.971Z,27.57
2023-02-16T06:14:08.402Z,24.63
2023-02-16T06:16:36.253Z,25.77
2023-02-16T06:19:04.141Z,26.30
2023-02-16T06:21:31.396Z,27.07
2023-02-16T06:23:58.362Z,27.00
2023-02-16T06:26:26.005Z,27.73
2023-02-16T06:28:52.821Z,26.87
2023-02-16T06:31:19.687Z,27.57
2023-02-16T06:33:47.569Z,27.77
2023-02-16T06:36:14.867Z,28.10
2023-02-16T06:38:41.845Z,27.03
2023-02-16T06:41:09.295Z,28.70
2023-02-16T06:43:36.146Z,28.90
2023-02-16T06:46:02.876Z,27.90
2023-02-16T06:48:29.621Z,27.23
2023-02-16T06:50:56.541Z,28.00
2023-02-16T06:53:23.278Z,28.30
2023-02-16T06:55:51.419Z,28.33
2023-02-16T06:58:18.153Z,29.10
2023-02-16T07:00:44.862Z,28.17
2023-02-16T07:03:12.116Z,27.70
2023-02-16T07:05:38.886Z,27.27
2023-02-16T07:08:05.572Z,28.97
2023-02-16T07:10:43.935Z,28.20
2023-02-16T07:13:15.797Z,27.43
2023-02-16T07:15:42.459Z,27.10
2023-02-16T07:18:09.347Z,28.90
2023-02-16T07:20:36.120Z,27.37
2023-02-16T07:23:02.825Z,26.30
2023-02-16T07:25:29.688Z,27.03
2023-02-16T07:27:56.389Z,27.13
2023-02-16T07:30:23.786Z,27.23
2023-02-16T07:32:50.937Z,28.20
2023-02-16T07:35:17.870Z,28.53
2023-02-16T07:37:44.522Z,23.63
2023-02-16T07:40:12.121Z,26.67
2023-02-16T07:42:39.039Z,25.43
2023-02-16T07:45:05.947Z,25.07
2023-02-16T07:47:32.678Z,26.90
2023-02-16T07:49:59.318Z,24.07
2023-02-16T07:52:31.007Z,24.77
2023-02-16T07:55:01.090Z,23.50
2023-02-16T07:57:28.538Z,23.03
2023-02-16T07:59:55.799Z,23.07
2023-02-16T08:02:23.514Z,23.30
2023-02-16T08:04:52.617Z,24.13
2023-02-16T08:07:20.235Z,24.27
2023-02-16T08:09:46.953Z,21.90
2023-02-16T08:12:15.113Z,23.87
2023-02-16T08:14:42.319Z,24.43
2023-02-16T08:17:09.578Z,21.60
2023-02-16T08:19:37.294Z,22.03
2023-02-16T08:22:04.651Z,21.90
2023-02-16T08:24:31.985Z,22.80
2023-02-16T08:26:58.659Z,22.53
2023-02-16T08:29:26.183Z,24.00
2023-02-16T08:31:55.345Z,23.63
2023-02-16T08:34:22.708Z,22.17
2023-02-16T08:36:56.697Z,22.47
2023-02-16T08:39:26.409Z,22.70
2023-02-16T08:41:53.996Z,21.40
2023-02-16T08:44:22.627Z,22.60
2023-02-16T08:46:52.091Z,22.27
2023-02-16T08:49:21.701Z,22.30
2023-02-16T08:51:50.806Z,21.17
2023-02-16T08:54:20.067Z,21.97
2023-02-16T08:56:47.808Z,22.23
2023-02-16T08:59:15.885Z,22.70
2023-02-16T09:01:42.648Z,24.00
2023-02-16T09:04:09.680Z,23.83
2023-02-16T09:06:38.335Z,23.40
2023-02-16T09:09:05.764Z,22.60
2023-02-16T09:11:33.051Z,22.00
2023-02-16T09:13:59.800Z,21.20
2023-02-16T09:16:33.661Z,22.57
2023-02-16T09:19:01.725Z,22.97
2023-02-16T09:21:33.217Z,23.73
2023-02-16T09:24:05.183Z,22.40
2023-02-16T09:26:34.632Z,21.07
2023-02-16T09:29:02.109Z,21.87
2023-02-16T09:31:32.461Z,23.00
2023-02-16T09:34:05.844Z,24.50
2023-02-16T09:36:32.514Z,21.47
2023-02-16T09:38:59.478Z,24.23
2023-02-16T09:41:38.699Z,21.10
2023-02-16T09:44:17.228Z,21.87
2023-02-16T09:46:44.495Z,24.47
2023-02-16T09:49:32.607Z,21.83
2023-02-16T09:52:08.912Z,23.23
2023-02-16T09:54:46.575Z,22.03
2023-02-16T09:57:31.484Z,22.63
2023-02-16T10:00:07.758Z,20.93
2023-02-16T10:02:54.079Z,21.30
2023-02-16T10:05:26.798Z,20.60
2023-02-16T10:07:58.845Z,21.37
2023-02-16T10:10:33.848Z,21.20
2023-02-16T10:13:07.451Z,21.77
2023-02-16T10:15:37.698Z,22.07
2023-02-16T10:18:18.270Z,21.30
2023-02-16T10:20:49.503Z,21.80
2023-02-16T10:23:40.474Z,21.00
2023-02-16T10:26:13.516Z,21.57
2023-02-16T10:28:47.910Z,20.50
2023-02-16T10:31:24.359Z,20.80
2023-02-16T10:33:51.048Z,20.77
2023-02-16T10:36:58.211Z,22.50
2023-02-16T10:39:53.494Z,22.90
2023-02-16T10:42:50.063Z,22.80
2023-02-16T10:45:30.344Z,21.70
2023-02-16T10:47:57.248Z,22.10
2023-02-16T10:50:29.918Z,21.67
2023-02-16T10:53:00.803Z,20.87
2023-02-16T10:55:27.721Z,21.87
2023-02-16T10:57:58.451Z,18.80
2023-02-16T11:00:53.168Z,21.20
2023-02-16T11:03:24.875Z,21.07
2023-02-16T11:05:53.182Z,21.50
2023-02-16T11:08:19.898Z,21.57
2023-02-16T11:10:52.644Z,22.20
2023-02-16T11:13:28.232Z,20.50
2023-02-16T11:15:58.995Z,20.97
2023-02-16T11:18:37.734Z,21.93
2023-02-16T11:21:06.648Z,20.73
2023-02-16T11:23:41.621Z,19.63
2023-02-16T11:26:11.696Z,22.70
2023-02-16T11:28:47.794Z,20.63
2023-02-16T11:31:19.794Z,21.10
2023-02-16T11:34:11.980Z,21.97
2023-02-16T11:36:44.971Z,21.20
2023-02-16T11:39:20.430Z,19.90
2023-02-16T11:41:52.945Z,21.07
2023-02-16T11:44:32.572Z,21.83
2023-02-16T11:47:07.863Z,21.37
2023-02-16T11:49:40.793Z,20.63
2023-02-16T11:52:23.026Z,21.77
2023-02-16T11:54:55.764Z,20.70
2023-02-16T11:57:26.851Z,20.73
2023-02-16T11:59:54.872Z,21.27
2023-02-16T12:02:57.904Z,20.97
2023-02-16T12:05:34.544Z,21.97
2023-02-16T12:08:32.217Z,20.33
2023-02-16T12:11:17.364Z,20.60
2023-02-16T12:14:02.818Z,20.43
2023-02-16T12:16:59.897Z,19.43
2023-02-16T12:19:39.673Z,19.30
2023-02-16T12:22:32.413Z,20.37
2023-02-16T12:25:02.670Z,21.30
2023-02-16T12:27:49.158Z,19.43
2023-02-16T12:30:36.726Z,21.07
2023-02-16T12:33:15.773Z,19.87
2023-02-16T12:35:51.311Z,20.67
2023-02-16T12:38:46.346Z,20.20
2023-02-16T12:41:43.853Z,22.80
2023-02-16T12:44:35.938Z,22.33
2023-02-16T12:47:06.234Z,20.80
2023-02-16T12:49:45.954Z,20.67
2023-02-16T12:52:40.261Z,20.83
2023-02-16T12:55:30.810Z,20.60
2023-02-16T12:58:04.266Z,20.90
2023-02-16T13:00:55.951Z,20.80
2023-02-16T13:03:22.662Z,22.17
2023-02-16T13:06:00.465Z,20.53
2023-02-16T13:08:54.312Z,21.97
2023-02-16T13:11:28.342Z,21.47
2023-02-16T13:14:01.846Z,22.93
2023-02-16T13:16:43.566Z,21.23
2023-02-16T13:19:14.760Z,21.43
2023-02-16T13:21:52.137Z,20.87
2023-02-16T13:24:37.769Z,22.80
2023-02-16T13:27:29.786Z,21.27
2023-02-16T13:30:05.822Z,21.27
2023-02-16T13:32:46.447Z,19.53
2023-02-16T13:35:13.042Z,22.70
2023-02-16T13:38:01.145Z,21.20
2023-02-16T13:40:42.154Z,21.33
2023-02-16T13:43:16.675Z,21.40
2023-02-16T13:45:46.903Z,21.03
2023-02-16T13:48:23.952Z,19.80
2023-02-16T13:51:05.161Z,20.23
2023-02-16T13:53:41.544Z,20.00
2023-02-16T13:56:22.192Z,21.07
2023-02-16T13:58:51.713Z,19.00
2023-02-16T14:01:38.783Z,20.60
2023-02-16T14:04:34.615Z,20.50
2023-02-16T14:07:07.557Z,20.40
2023-02-16T14:09:37.259Z,19.80
2023-02-16T14:12:11.598Z,20.03
2023-02-16T14:14:38.230Z,18.70
2023-02-16T14:17:21.449Z,17.57
2023-02-16T14:20:24.396Z,17.70
2023-02-16T14:22:53.969Z,19.77
2023-02-16T14:25:22.035Z,17.70
2023-02-16T14:27:54.430Z,17.57
2023-02-16T14:30:33.443Z,18.40
2023-02-16T14:33:17.582Z,18.03
2023-02-16T14:36:07.935Z,16.93
2023-02-16T14:38:37.642Z,17.60
2023-02-16T14:41:13.758Z,18.00
2023-02-16T14:43:42.251Z,17.30
2023-02-16T14:46:24.577Z,17.60
2023-02-16T14:48:51.541Z,17.10
2023-02-16T14:51:33.297Z,15.53
2023-02-16T14:54:24.505Z,17.63
2023-02-16T14:56:57.165Z,17.00
2023-02-16T14:59:40.835Z,16.97
2023-02-16T15:02:28.148Z,17.63
2023-02-16T15:04:54.895Z,17.80
2023-02-16T15:07:23.457Z,15.27
2023-02-16T15:09:57.102Z,16.60
2023-02-16T15:12:38.899Z,16.60
2023-02-16T15:15:10.071Z,17.30
2023-02-16T15:17:44.719Z,16.50
2023-02-16T15:20:29.314Z,15.50
2023-02-16T15:22:58.905Z,16.70
2023-02-16T15:25:28.206Z,17.83
2023-02-16T15:28:01.290Z,17.73
2023-02-16T15:30:30.593Z,16.83
2023-02-16T15:33:06.882Z,17.70
2023-02-16T15:35:38.413Z,15.63
2023-02-16T15:38:31.522Z,15.63
2023-02-16T15:41:02.487Z,16.50
2023-02-16T15:43:37.357Z,15.80
2023-02-16T15:46:07.561Z,17.20
2023-02-16T15:48:37.565Z,17.47
2023-02-16T15:51:18.981Z,16.30
2023-02-16T15:53:58.437Z,16.00
2023-02-16T15:56:44.130Z,16.20
2023-02-16T15:59:27.680Z,16.20
2023-02-16T16:02:24.633Z,15.50
2023-02-16T16:04:57.464Z,15.90
2023-02-16T16:07:35.437Z,16.20
2023-02-16T16:10:09.484Z,17.37
2023-02-16T16:12:36.418Z,15.77
2023-02-16T16:15:04.362Z,14.93
2023-02-16T16:17:37.813Z,16.30
2023-02-16T16:20:27.542Z,16.57
2023-02-16T16:23:00.344Z,16.83
2023-02-16T16:25:36.678Z,17.50
2023-02-16T16:28:05.981Z,16.80
2023-02-16T16:30:34.640Z,16.80
2023-02-16T16:33:10.137Z,16.93
2023-02-16T16:35:50.659Z,15.70
2023-02-16T16:38:27.989Z,16.10
2023-02-16T16:41:01.418Z,15.00
2023-02-16T16:43:34.854Z,15.70
2023-02-16T16:46:25.089Z,15.20
2023-02-16T16:49:07.968Z,16.17
2023-02-16T16:51:43.179Z,15.60
2023-02-16T16:54:39.522Z,15.37
2023-02-16T16:57:17.994Z,17.40
2023-02-16T16:59:44.693Z,16.50
2023-02-16T17:02:11.337Z,16.37
2023-02-16T17:04:38.008Z,14.70
2023-02-16T17:07:05.884Z,13.40
2023-02-16T17:09:32.517Z,14.37
2023-02-16T17:11:59.369Z,14.43
2023-02-16T17:14:27.725Z,13.93
2023-02-16T17:16:56.843Z,14.10
2023-02-16T17:19:23.563Z,14.63
2023-02-16T17:21:50.260Z,14.37
2023-02-16T17:24:17.025Z,13.43
2023-02-16T17:26:43.806Z,13.40
2023-02-16T17:29:10.476Z,13.77
2023-02-16T17:31:37.190Z,13.07
2023-02-16T17:34:04.375Z,13.90
2023-02-16T17:36:31.075Z,14.13
2023-02-16T17:38:58.080Z,14.13
2023-02-16T17:41:28.007Z,14.00
2023-02-16T17:43:55.099Z,13.33
2023-02-16T17:46:23.229Z,13.10
2023-02-16T17:48:53.232Z,12.90
2023-02-16T17:51:22.362Z,13.30
2023-02-16T17:53:49.195Z,13.27
2023-02-16T17:56:18.869Z,14.93
2023-02-16T17:58:46.058Z,12.90
2023-02-16T18:01:14.269Z,13.90
2023-02-16T18:03:41.155Z,13.13
2023-02-16T18:06:09.026Z,12.70
2023-02-16T18:08:35.690Z,13.20
2023-02-16T18:11:03.448Z,14.93
2023-02-16T18:13:30.935Z,13.40
2023-02-16T18:15:59.419Z,13.20
2023-02-16T18:18:26.296Z,13.60
2023-02-16T18:20:53.549Z,14.27
2023-02-16T18:23:20.287Z,14.33
2023-02-16T18:25:47.092Z,13.20
2023-02-16T18:28:18.361Z,13.60
2023-02-16T18:30:47.726Z,13.57
2023-02-16T18:33:14.726Z,14.93
2023-02-16T18:35:41.952Z,13.40
2023-02-16T18:38:08.860Z,14.80
2023-02-16T18:40:35.927Z,14.07
2023-02-16T18:43:02.639Z,15.10
2023-02-16T18:45:29.337Z,14.00
2023-02-16T18:47:56.124Z,14.17
2023-02-16T18:50:22.768Z,13.17
2023-02-16T18:52:49.510Z,13.67
2023-02-16T18:55:16.720Z,14.57
2023-02-16T18:57:43.522Z,13.10
2023-02-16T19:00:12.521Z,13.87
2023-02-16T19:02:40.718Z,12.90
2023-02-16T19:05:09.023Z,15.80
2023-02-16T19:07:36.102Z,15.23
2023-02-16T19:10:04.688Z,14.20
2023-02-16T19:12:31.344Z,16.03
2023-02-16T19:14:58.046Z,14.83
2023-02-16T19:17:24.724Z,15.10
2023-02-16T19:19:51.371Z,14.97
2023-02-16T19:22:18.062Z,15.60
2023-02-16T19:24:44.765Z,16.60
2023-02-16T19:27:11.967Z,16.43
2023-02-16T19:29:38.762Z,15.50
2023-02-16T19:32:05.470Z,15.50
2023-02-16T19:34:32.890Z,15.50
2023-02-16T19:36:59.944Z,15.30
2023-02-16T19:39:26.681Z,14.13
2023-02-16T19:41:53.377Z,13.90
2023-02-16T19:44:20.073Z,15.23
2023-02-16T19:46:46.723Z,14.83
2023-02-16T19:49:15.000Z,15.97
2023-02-16T19:51:42.664Z,15.23
2023-02-16T19:54:09.833Z,15.67
2023-02-16T19:56:40.313Z,15.50
2023-02-16T19:59:08.394Z,16.20
2023-02-16T20:01:35.193Z,17.63
2023-02-16T20:04:02.757Z,16.57
2023-02-16T20:06:32.867Z,14.77
2023-02-16T20:09:00.789Z,14.87
2023-02-16T20:11:29.404Z,17.73
2023-02-16T20:13:56.372Z,16.13
2023-02-16T20:16:23.780Z,16.97
2023-02-16T20:18:51.224Z,17.30
2023-02-16T20:21:23.237Z,16.77
2023-02-16T20:23:52.618Z,18.43
2023-02-16T20:26:22.415Z,18.73
2023-02-16T20:28:50.612Z,18.70
2023-02-16T20:31:21.441Z,18.90
2023-02-16T20:33:49.429Z,18.63
2023-02-16T20:36:16.500Z,19.30
2023-02-16T20:38:43.201Z,17.57
2023-02-16T20:41:10.094Z,19.43
2023-02-16T20:43:37.067Z,19.77
2023-02-16T20:46:06.241Z,18.50
2023-02-16T20:48:33.455Z,20.13
2023-02-16T20:51:04.784Z,18.83
2023-02-16T20:53:33.452Z,18.73
2023-02-16T20:56:09.140Z,19.97
2023-02-16T20:58:37.023Z,18.83
2023-02-16T21:01:14.956Z,18.80
2023-02-16T21:03:41.884Z,17.70
2023-02-16T21:06:08.804Z,18.27
2023-02-16T21:08:35.778Z,18.53
2023-02-16T21:11:02.481Z,19.63
2023-02-16T21:13:29.281Z,18.80
2023-02-16T21:15:55.984Z,19.27
2023-02-16T21:18:22.720Z,19.93
2023-02-16T21:20:49.471Z,19.07
2023-02-16T21:23:16.124Z,18.13
2023-02-16T21:25:42.788Z,19.90
2023-02-16T21:28:09.623Z,20.20
2023-02-16T21:30:36.261Z,19.70
2023-02-16T21:33:03.432Z,18.60
2023-02-16T21:35:31.966Z,18.87
2023-02-16T21:37:58.614Z,19.40
2023-02-16T21:40:44.664Z,19.67
2023-02-16T21:43:12.071Z,20.90
2023-02-16T21:45:38.834Z,21.20
2023-02-16T21:48:24.277Z,19.70
2023-02-16T21:50:50.932Z,23.20
2023-02-16T21:53:17.554Z,22.70
2023-02-16T21:56:03.335Z,22.13
2023-02-16T21:58:33.342Z,22.90
2023-02-16T22:01:00.965Z,22.00
2023-02-16T22:03:28.577Z,24.40
2023-02-16T22:05:55.305Z,22.87
2023-02-16T22:08:22.037Z,23.10
2023-02-16T22:10:48.679Z,22.90
2023-02-16T22:13:15.318Z,24.90
2023-02-16T22:15:42.369Z,24.30
2023-02-16T22:18:09.046Z,22.17
2023-02-16T22:20:35.852Z,23.50
2023-02-16T22:23:03.259Z,23.23
2023-02-16T22:25:29.929Z,24.77
2023-02-16T22:27:56.541Z,23.47
2023-02-16T22:30:23.272Z,23.93
2023-02-16T22:32:51.229Z,23.40
2023-02-16T22:35:18.135Z,23.87
2023-02-16T22:37:44.760Z,24.53
2023-02-16T22:40:11.404Z,23.43
2023-02-16T22:42:38.846Z,26.07
2023-02-16T22:45:05.875Z,25.80
2023-02-16T22:47:32.560Z,25.30
2023-02-16T22:49:59.257Z,25.00
2023-02-16T22:52:26.001Z,26.50
2023-02-16T22:54:52.637Z,26.77
2023-02-16T22:57:19.326Z,28.03
2023-02-16T22:59:46.027Z,23.20
2023-02-16T23:02:12.713Z,23.47
2023-02-16T23:04:41.203Z,23.70
2023-02-16T23:07:09.066Z,24.77
2023-02-16T23:09:35.774Z,25.70
2023-02-16T23:12:02.714Z,24.40
2023-02-16T23:14:29.445Z,23.83
2023-02-16T23:16:56.236Z,24.87
2023-02-16T23:19:26.160Z,24.23
2023-02-16T23:21:53.683Z,25.57
2023-02-16T23:24:22.805Z,23.63
2023-02-16T23:26:50.076Z,23.60
2023-02-16T23:29:17.455Z,22.60
2023-02-16T23:31:46.869Z,24.20
2023-02-16T23:34:14.656Z,24.30
2023-02-16T23:36:42.056Z,24.20
2023-02-16T23:39:12.211Z,23.47
2023-02-16T23:41:39.531Z,21.90
2023-02-16T23:44:06.918Z,20.90
2023-02-16T23:46:33.721Z,19.67
2023-02-16T23:49:00.418Z,20.83
2023-02-16T23:51:27.794Z,21.23
2023-02-16T23:53:54.837Z,22.47
2023-02-16T23:56:24.258Z,20.80
2023-02-16T23:58:51.222Z,19.63
